createdAt,value
2022-10-31T00:01:23.529Z,69.90
2022-10-31T00:03:50.260Z,69.80
2022-10-31T00:06:19.897Z,69.70
2022-10-31T00:08:47.909Z,69.60
2022-10-31T00:11:15.026Z,70.60
2022-10-31T00:13:41.752Z,69.90
2022-10-31T00:16:18.577Z,69.80
2022-10-31T00:18:48.515Z,69.80
2022-10-31T00:21:15.903Z,69.80
2022-10-31T00:23:42.632Z,69.80
2022-10-31T00:26:09.447Z,69.80
2022-10-31T00:28:36.252Z,69.70
2022-10-31T00:31:08.487Z,69.80
2022-10-31T00:33:37.573Z,70.10
2022-10-31T00:36:06.369Z,69.80
2022-10-31T00:38:33.115Z,69.80
2022-10-31T00:41:00.005Z,69.90
2022-10-31T00:43:26.649Z,69.80
2022-10-31T00:45:53.323Z,69.90
2022-10-31T00:48:20.017Z,70.00
2022-10-31T00:50:46.647Z,70.30
2022-10-31T00:53:13.303Z,70.20
2022-10-31T00:55:39.983Z,70.20
2022-10-31T00:58:06.722Z,70.10
2022-10-31T01:00:33.401Z,70.20
2022-10-31T01:03:00.899Z,70.50
2022-10-31T01:05:27.858Z,70.40
2022-10-31T01:07:54.560Z,70.40
2022-10-31T01:10:21.569Z,70.30
2022-10-31T01:12:49.944Z,70.80
2022-10-31T01:15:22.366Z,71.50
2022-10-31T01:17:50.012Z,72.40
2022-10-31T01:20:17.728Z,71.80
2022-10-31T01:22:44.450Z,71.30
2022-10-31T01:25:11.505Z,71.10
2022-10-31T01:27:38.304Z,71.00
2022-10-31T01:30:06.232Z,71.00
2022-10-31T01:32:33.244Z,70.90
2022-10-31T01:35:00.037Z,70.90
2022-10-31T01:37:26.873Z,70.90
2022-10-31T01:39:53.541Z,71.10
2022-10-31T01:42:22.094Z,70.90
2022-10-31T01:44:55.615Z,70.90
2022-10-31T01:47:31.400Z,70.90
2022-10-31T01:50:03.876Z,70.90
2022-10-31T01:52:38.528Z,71.00
2022-10-31T01:55:29.946Z,70.90
2022-10-31T01:58:03.268Z,70.90
2022-10-31T02:00:30.377Z,70.80
2022-10-31T02:02:57.531Z,71.00
2022-10-31T02:05:27.924Z,70.90
2022-10-31T02:08:02.915Z,70.80
2022-10-31T02:10:32.551Z,70.80
2022-10-31T02:13:00.961Z,70.90
2022-10-31T02:15:29.336Z,71.00
2022-10-31T02:17:56.147Z,71.00
2022-10-31T02:20:26.086Z,72.00
2022-10-31T02:23:11.657Z,71.90
2022-10-31T02:26:00.140Z,72.10
2022-10-31T02:28:41.939Z,72.00
2022-10-31T02:31:23.591Z,71.80
2022-10-31T02:33:56.631Z,72.00
2022-10-31T02:36:32.749Z,72.80
2022-10-31T02:39:02.109Z,72.60
2022-10-31T02:42:02.455Z,72.70
2022-10-31T02:44:57.966Z,72.80
2022-10-31T02:47:35.875Z,73.10
2022-10-31T02:50:06.362Z,73.10
2022-10-31T02:52:35.008Z,73.80
2022-10-31T02:55:23.716Z,73.20
2022-10-31T02:57:54.165Z,72.70
2022-10-31T03:00:21.018Z,72.70
2022-10-31T03:03:12.606Z,72.30
2022-10-31T03:05:39.179Z,72.30
2022-10-31T03:08:14.676Z,72.00
2022-10-31T03:10:48.439Z,72.00
2022-10-31T03:13:33.572Z,71.90
2022-10-31T03:16:33.949Z,72.00
2022-10-31T03:19:03.200Z,72.20
2022-10-31T03:21:33.857Z,72.20
2022-10-31T03:24:02.974Z,72.00
2022-10-31T03:26:30.767Z,72.00
2022-10-31T03:29:05.073Z,72.50
2022-10-31T03:31:38.096Z,72.80
2022-10-31T03:34:06.816Z,72.70
2022-10-31T03:36:35.411Z,72.20
2022-10-31T03:39:05.334Z,72.00
2022-10-31T03:41:39.507Z,71.90
2022-10-31T03:44:15.513Z,71.90
2022-10-31T03:46:43.835Z,72.00
2022-10-31T03:49:11.676Z,71.90
2022-10-31T03:51:50.498Z,71.80
2022-10-31T03:54:42.896Z,71.90
2022-10-31T03:57:23.667Z,71.90
2022-10-31T04:00:07.638Z,71.90
2022-10-31T04:02:43.841Z,71.90
2022-10-31T04:05:11.942Z,71.90
2022-10-31T04:07:43.280Z,72.00
2022-10-31T04:10:14.031Z,71.90
2022-10-31T04:12:41.815Z,71.90
2022-10-31T04:15:09.860Z,71.80
2022-10-31T04:17:41.171Z,71.90
2022-10-31T04:20:08.596Z,72.30
2022-10-31T04:22:35.356Z,72.40
2022-10-31T04:25:02.919Z,72.20
2022-10-31T04:27:29.532Z,71.90
2022-10-31T04:29:56.150Z,72.00
2022-10-31T04:32:22.786Z,71.90
2022-10-31T04:34:49.416Z,71.90
2022-10-31T04:37:16.068Z,71.90
2022-10-31T04:39:42.725Z,71.80
2022-10-31T04:42:09.365Z,71.70
2022-10-31T04:44:36.138Z,71.90
2022-10-31T04:47:02.898Z,72.40
2022-10-31T04:49:29.537Z,73.20
2022-10-31T04:51:56.164Z,72.90
2022-10-31T04:54:22.807Z,72.60
2022-10-31T04:56:49.498Z,72.20
2022-10-31T04:59:16.168Z,72.40
2022-10-31T05:01:42.864Z,73.40
2022-10-31T05:04:09.680Z,74.00
2022-10-31T05:06:36.281Z,73.50
2022-10-31T05:09:03.400Z,73.30
2022-10-31T05:11:30.037Z,73.20
2022-10-31T05:13:56.712Z,73.10
2022-10-31T05:16:23.375Z,72.90
2022-10-31T05:18:50.023Z,73.30
2022-10-31T05:21:16.641Z,74.00
2022-10-31T05:23:47.496Z,74.50
2022-10-31T05:26:15.244Z,73.90
2022-10-31T05:28:41.862Z,73.30
2022-10-31T05:31:08.542Z,73.10
2022-10-31T05:33:35.381Z,73.00
2022-10-31T05:36:02.919Z,72.90
2022-10-31T05:38:29.546Z,72.90
2022-10-31T05:41:02.495Z,73.10
2022-10-31T05:43:29.913Z,72.90
2022-10-31T05:45:57.368Z,73.00
2022-10-31T05:48:24.216Z,73.50
2022-10-31T05:50:50.971Z,72.60
2022-10-31T05:53:17.633Z,72.60
2022-10-31T05:55:44.689Z,72.60
2022-10-31T05:58:11.681Z,72.60
2022-10-31T06:00:38.513Z,72.50
2022-10-31T06:05:39.433Z,72.30
2022-10-31T06:08:06.241Z,73.10
2022-10-31T06:10:32.897Z,72.30
2022-10-31T06:12:59.514Z,72.30
2022-10-31T06:15:26.096Z,72.50
2022-10-31T06:18:00.533Z,72.70
2022-10-31T06:20:27.882Z,72.90
2022-10-31T06:22:54.507Z,72.70
2022-10-31T06:25:21.258Z,72.70
2022-10-31T06:27:47.963Z,72.50
2022-10-31T06:30:14.987Z,72.50
2022-10-31T06:32:41.715Z,72.60
2022-10-31T06:35:08.528Z,72.40
2022-10-31T06:37:37.056Z,72.50
2022-10-31T06:40:03.938Z,72.40
2022-10-31T06:42:30.577Z,72.50
2022-10-31T06:44:57.285Z,72.30
2022-10-31T06:47:24.042Z,73.10
2022-10-31T06:49:50.658Z,72.30
2022-10-31T06:52:17.425Z,73.10
2022-10-31T06:54:44.078Z,72.50
2022-10-31T06:57:10.693Z,72.40
2022-10-31T06:59:37.489Z,72.50
2022-10-31T07:02:04.554Z,72.60
2022-10-31T07:04:31.399Z,72.60
2022-10-31T07:06:58.007Z,72.70
2022-10-31T07:09:24.761Z,72.90
2022-10-31T07:11:53.901Z,73.20
2022-10-31T07:14:20.647Z,73.20
2022-10-31T07:16:53.121Z,73.00
2022-10-31T07:19:19.975Z,72.90
2022-10-31T07:21:46.711Z,73.70
2022-10-31T07:24:13.331Z,73.70
2022-10-31T07:26:39.997Z,73.10
2022-10-31T07:29:06.683Z,72.90
2022-10-31T07:31:33.311Z,72.90
2022-10-31T07:33:59.969Z,72.80
2022-10-31T07:36:26.576Z,73.00
2022-10-31T07:38:53.189Z,72.90
2022-10-31T07:41:19.901Z,73.20
2022-10-31T07:43:46.640Z,73.10
2022-10-31T07:46:13.357Z,73.10
2022-10-31T07:48:40.097Z,73.40
2022-10-31T07:51:07.919Z,73.50
2022-10-31T07:53:34.588Z,73.70
2022-10-31T07:56:04.854Z,73.80
2022-10-31T07:58:31.461Z,73.40
2022-10-31T08:00:58.884Z,73.60
2022-10-31T08:03:25.621Z,73.90
2022-10-31T08:05:52.372Z,74.60
2022-10-31T08:08:19.117Z,74.70
2022-10-31T08:10:45.769Z,74.10
2022-10-31T08:13:14.488Z,74.30
2022-10-31T08:15:42.754Z,74.40
2022-10-31T08:18:15.314Z,74.90
2022-10-31T08:20:43.664Z,75.10
2022-10-31T08:23:11.705Z,74.70
2022-10-31T08:25:39.303Z,75.70
2022-10-31T08:28:07.597Z,75.50
2022-10-31T08:30:36.523Z,75.70
2022-10-31T08:33:10.526Z,77.00
2022-10-31T08:35:37.438Z,75.90
2022-10-31T08:38:04.927Z,76.20
2022-10-31T08:40:33.147Z,76.20
2022-10-31T08:43:09.998Z,75.80
2022-10-31T08:45:39.922Z,75.90
2022-10-31T08:48:18.262Z,75.50
2022-10-31T08:50:45.983Z,75.50
2022-10-31T08:53:18.252Z,75.50
2022-10-31T08:55:46.381Z,75.40
2022-10-31T08:58:16.618Z,75.30
2022-10-31T09:00:44.088Z,75.30
2022-10-31T09:03:16.703Z,75.60
2022-10-31T09:05:43.885Z,75.40
2022-10-31T09:08:15.991Z,75.50
2022-10-31T09:10:44.321Z,75.30
2022-10-31T09:13:16.510Z,75.60
2022-10-31T09:15:44.888Z,76.60
2022-10-31T09:18:13.013Z,76.20
2022-10-31T09:20:40.741Z,75.70
2022-10-31T09:23:11.224Z,75.60
2022-10-31T09:25:38.372Z,75.70
2022-10-31T09:28:07.104Z,75.30
2022-10-31T09:30:35.766Z,75.40
2022-10-31T09:33:05.269Z,75.40
2022-10-31T09:35:32.368Z,75.50
2022-10-31T09:38:04.410Z,75.40
2022-10-31T09:40:37.297Z,75.40
2022-10-31T09:43:19.297Z,74.90
2022-10-31T09:45:53.030Z,74.50
2022-10-31T09:48:37.966Z,74.40
2022-10-31T09:51:12.316Z,74.20
2022-10-31T09:54:00.349Z,74.30
2022-10-31T09:56:28.510Z,74.40
2022-10-31T09:58:59.185Z,74.20
2022-10-31T10:01:31.749Z,74.60
2022-10-31T10:04:21.680Z,74.70
2022-10-31T10:06:52.318Z,75.00
2022-10-31T10:09:25.974Z,74.40
2022-10-31T10:12:31.161Z,74.00
2022-10-31T10:15:31.890Z,74.30
2022-10-31T10:18:11.854Z,74.10
2022-10-31T10:21:05.867Z,74.60
2022-10-31T10:24:12.042Z,74.10
2022-10-31T10:26:44.232Z,74.00
2022-10-31T10:29:10.791Z,74.20
2022-10-31T10:31:46.422Z,74.00
2022-10-31T10:34:32.886Z,73.90
2022-10-31T10:37:10.148Z,74.00
2022-10-31T10:39:42.091Z,73.80
2022-10-31T10:42:30.728Z,73.60
2022-10-31T10:45:16.826Z,73.40
2022-10-31T10:47:45.785Z,73.40
2022-10-31T10:50:26.676Z,73.70
2022-10-31T10:53:22.046Z,74.00
2022-10-31T10:56:00.720Z,74.00
2022-10-31T10:58:27.329Z,73.40
2022-10-31T11:00:56.169Z,73.60
2022-10-31T11:03:22.903Z,74.00
2022-10-31T11:05:53.462Z,73.60
2022-10-31T11:08:31.339Z,73.40
2022-10-31T11:11:19.734Z,73.50
2022-10-31T11:13:49.830Z,73.60
2022-10-31T11:16:28.762Z,74.10
2022-10-31T11:19:19.839Z,72.90
2022-10-31T11:21:53.778Z,72.70
2022-10-31T11:24:27.124Z,72.70
2022-10-31T11:27:10.610Z,72.60
2022-10-31T11:29:37.710Z,72.50
2022-10-31T11:32:04.629Z,72.30
2022-10-31T11:34:35.640Z,72.80
2022-10-31T11:37:22.385Z,72.10
2022-10-31T11:39:57.748Z,71.90
2022-10-31T11:42:28.531Z,71.90
2022-10-31T11:44:56.523Z,72.00
2022-10-31T11:47:30.214Z,72.00
2022-10-31T11:49:58.305Z,72.00
2022-10-31T11:52:28.380Z,70.90
2022-10-31T11:54:56.733Z,70.60
2022-10-31T11:57:27.890Z,70.20
2022-10-31T11:59:58.126Z,70.10
2022-10-31T12:02:25.689Z,70.30
2022-10-31T12:05:09.484Z,70.40
2022-10-31T12:07:36.409Z,70.10
2022-10-31T12:10:11.298Z,69.70
2022-10-31T12:12:48.575Z,69.70
2022-10-31T12:15:32.308Z,69.60
2022-10-31T12:18:18.586Z,69.30
2022-10-31T12:20:45.238Z,69.30
2022-10-31T12:23:27.045Z,69.40
2022-10-31T12:26:08.777Z,69.10
2022-10-31T12:28:56.139Z,68.90
2022-10-31T12:31:41.183Z,68.50
2022-10-31T12:34:21.413Z,68.30
2022-10-31T12:36:55.814Z,68.20
2022-10-31T12:39:30.473Z,68.10
2022-10-31T12:42:22.545Z,68.40
2022-10-31T12:45:27.085Z,67.80
2022-10-31T12:48:20.829Z,67.20
2022-10-31T12:51:09.130Z,66.40
2022-10-31T12:54:28.115Z,64.80
2022-10-31T12:57:03.645Z,66.00
2022-10-31T12:59:39.048Z,66.20
2022-10-31T13:02:18.161Z,66.30
2022-10-31T13:05:16.852Z,66.50
2022-10-31T13:07:50.463Z,66.50
2022-10-31T13:10:30.659Z,66.60
2022-10-31T13:13:05.392Z,65.90
2022-10-31T13:15:41.123Z,66.00
2022-10-31T13:18:16.276Z,66.20
2022-10-31T13:20:53.079Z,66.50
2022-10-31T13:23:50.321Z,66.50
2022-10-31T13:26:44.474Z,66.10
2022-10-31T13:29:40.618Z,66.10
2022-10-31T13:32:08.576Z,66.50
2022-10-31T13:34:40.571Z,66.30
2022-10-31T13:37:29.228Z,66.40
2022-10-31T13:40:27.920Z,66.60
2022-10-31T13:43:28.262Z,66.40
2022-10-31T13:45:56.546Z,66.60
2022-10-31T13:48:26.127Z,66.80
2022-10-31T13:51:05.715Z,66.30
2022-10-31T13:53:43.041Z,66.50
2022-10-31T13:56:09.740Z,66.60
2022-10-31T13:58:37.077Z,66.60
2022-10-31T14:01:19.971Z,67.70
2022-10-31T14:04:07.725Z,66.60
2022-10-31T14:06:46.910Z,66.70
2022-10-31T14:09:24.912Z,66.90
2022-10-31T14:11:52.474Z,66.70
2022-10-31T14:14:21.072Z,66.90
2022-10-31T14:16:55.922Z,67.00
2022-10-31T14:19:23.305Z,67.00
2022-10-31T14:21:51.101Z,67.10
2022-10-31T14:24:26.565Z,66.70
2022-10-31T14:27:02.193Z,67.00
2022-10-31T14:29:31.461Z,66.90
2022-10-31T14:32:14.943Z,67.10
2022-10-31T14:34:50.768Z,67.00
2022-10-31T14:37:38.940Z,66.40
2022-10-31T14:40:19.680Z,66.90
2022-10-31T14:42:52.669Z,66.50
2022-10-31T14:45:45.776Z,67.40
2022-10-31T14:48:44.612Z,66.20
2022-10-31T14:51:16.273Z,66.00
2022-10-31T14:53:53.684Z,66.50
2022-10-31T14:56:36.800Z,66.30
2022-10-31T14:59:09.119Z,66.30
2022-10-31T15:01:38.392Z,66.30
2022-10-31T15:04:23.489Z,65.50
2022-10-31T15:06:56.035Z,65.80
2022-10-31T15:09:34.625Z,65.10
2022-10-31T15:12:17.785Z,64.80
2022-10-31T15:14:44.450Z,65.00
2022-10-31T15:17:12.928Z,65.40
2022-10-31T15:19:39.824Z,65.20
2022-10-31T15:22:10.435Z,65.70
2022-10-31T15:24:39.631Z,65.40
2022-10-31T15:27:11.558Z,65.10
2022-10-31T15:29:49.864Z,64.50
2022-10-31T15:32:25.363Z,64.80
2022-10-31T15:34:53.311Z,64.70
2022-10-31T15:37:22.115Z,65.60
2022-10-31T15:39:50.234Z,65.80
2022-10-31T15:42:31.305Z,65.60
2022-10-31T15:45:25.250Z,65.60
2022-10-31T15:47:59.727Z,66.00
2022-10-31T15:50:38.476Z,65.80
2022-10-31T15:53:07.149Z,65.80
2022-10-31T15:55:39.509Z,65.80
2022-10-31T15:58:13.140Z,65.80
2022-10-31T16:00:39.847Z,65.70
2022-10-31T16:03:27.833Z,65.40
2022-10-31T16:05:57.662Z,65.40
2022-10-31T16:08:30.562Z,65.60
2022-10-31T16:11:07.245Z,65.20
2022-10-31T16:13:41.019Z,65.50
2022-10-31T16:16:35.750Z,65.80
2022-10-31T16:19:06.157Z,66.30
2022-10-31T16:21:37.347Z,65.70
2022-10-31T16:24:28.131Z,65.80
2022-10-31T16:27:08.033Z,66.10
2022-10-31T16:29:44.451Z,66.00
2022-10-31T16:32:38.385Z,66.10
2022-10-31T16:35:10.969Z,65.90
2022-10-31T16:37:42.052Z,65.50
2022-10-31T16:40:16.703Z,65.60
2022-10-31T16:42:44.661Z,66.00
2022-10-31T16:45:17.418Z,66.20
2022-10-31T16:47:44.088Z,66.30
2022-10-31T16:50:17.932Z,66.50
2022-10-31T16:53:01.060Z,66.70
2022-10-31T16:55:35.800Z,66.90
2022-10-31T16:58:03.323Z,67.10
2022-10-31T17:00:30.229Z,67.10
2022-10-31T17:02:57.769Z,67.20
2022-10-31T17:05:30.267Z,67.40
2022-10-31T17:08:00.611Z,67.30
2022-10-31T17:10:28.259Z,67.40
2022-10-31T17:12:55.632Z,67.40
2022-10-31T17:15:27.738Z,67.40
2022-10-31T17:17:54.947Z,67.40
2022-10-31T17:20:27.913Z,67.80
2022-10-31T17:22:55.739Z,68.00
2022-10-31T17:25:31.834Z,68.00
2022-10-31T17:27:59.510Z,68.00
2022-10-31T17:30:26.494Z,68.00
2022-10-31T17:32:53.671Z,68.10
2022-10-31T17:35:20.365Z,68.50
2022-10-31T17:37:47.791Z,68.60
2022-10-31T17:40:21.730Z,68.40
2022-10-31T17:42:53.017Z,68.50
2022-10-31T17:45:21.095Z,68.50
2022-10-31T17:47:49.405Z,68.40
2022-10-31T17:50:17.704Z,68.50
2022-10-31T17:52:44.465Z,68.70
2022-10-31T17:55:11.676Z,69.10
2022-10-31T17:57:41.677Z,68.70
2022-10-31T18:00:12.114Z,68.60
2022-10-31T18:02:38.934Z,68.60
2022-10-31T18:05:06.452Z,68.70
2022-10-31T18:07:33.299Z,68.50
2022-10-31T18:10:00.597Z,68.40
2022-10-31T18:12:28.148Z,68.50
2022-10-31T18:14:54.959Z,68.60
2022-10-31T18:17:22.007Z,68.80
2022-10-31T18:19:48.614Z,68.60
2022-10-31T18:22:15.225Z,68.80
2022-10-31T18:24:41.840Z,68.70
2022-10-31T18:27:08.561Z,68.40
2022-10-31T18:29:35.301Z,68.50
2022-10-31T18:32:09.089Z,68.40
2022-10-31T18:34:36.213Z,68.40
2022-10-31T18:37:03.237Z,68.70
2022-10-31T18:39:29.873Z,68.70
2022-10-31T18:41:56.832Z,68.60
2022-10-31T18:44:23.523Z,68.60
2022-10-31T18:46:50.173Z,68.60
2022-10-31T18:49:22.380Z,68.90
2022-10-31T18:51:50.214Z,69.00
2022-10-31T18:54:17.058Z,69.40
2022-10-31T18:56:43.941Z,69.10
2022-10-31T18:59:11.824Z,69.00
2022-10-31T19:01:38.919Z,68.90
2022-10-31T19:04:06.172Z,68.70
2022-10-31T19:06:33.154Z,68.70
2022-10-31T19:09:02.923Z,68.50
2022-10-31T19:11:33.123Z,68.30
2022-10-31T19:13:59.763Z,68.40
2022-10-31T19:16:26.672Z,68.60
2022-10-31T19:18:57.654Z,68.40
2022-10-31T19:21:24.831Z,68.50
2022-10-31T19:23:53.471Z,68.60
2022-10-31T19:26:20.212Z,69.00
2022-10-31T19:28:46.826Z,69.00
2022-10-31T19:31:13.901Z,68.90
2022-10-31T19:33:40.529Z,69.10
2022-10-31T19:36:10.150Z,69.10
2022-10-31T19:38:43.570Z,69.50
2022-10-31T19:41:16.875Z,69.30
2022-10-31T19:43:44.122Z,69.60
2022-10-31T19:46:22.258Z,70.80
2022-10-31T19:48:59.758Z,71.60
2022-10-31T19:51:26.407Z,71.00
2022-10-31T19:53:54.214Z,70.90
2022-10-31T19:56:24.036Z,70.90
2022-10-31T19:58:50.679Z,70.70
2022-10-31T20:01:20.305Z,70.50
2022-10-31T20:03:47.750Z,70.20
2022-10-31T20:06:18.358Z,70.20
2022-10-31T20:08:45.005Z,70.10
2022-10-31T20:11:11.614Z,70.20
2022-10-31T20:13:38.252Z,70.20
2022-10-31T20:16:08.465Z,70.20
2022-10-31T20:18:38.267Z,71.20
2022-10-31T20:21:07.814Z,71.70
2022-10-31T20:23:35.596Z,71.40
2022-10-31T20:26:03.003Z,71.10
2022-10-31T20:28:31.199Z,71.40
2022-10-31T20:30:58.714Z,71.00
2022-10-31T20:33:25.936Z,71.00
2022-10-31T20:35:52.685Z,70.90
2022-10-31T20:38:19.311Z,70.90
2022-10-31T20:40:46.154Z,71.30
2022-10-31T20:43:12.879Z,71.50
2022-10-31T20:45:39.644Z,72.10
2022-10-31T20:48:06.461Z,72.30
2022-10-31T20:50:33.168Z,73.30
2022-10-31T20:53:00.030Z,73.50
2022-10-31T20:55:27.055Z,73.30
2022-10-31T20:57:53.758Z,73.20
2022-10-31T21:00:22.246Z,73.20
2022-10-31T21:02:49.366Z,73.30
2022-10-31T21:05:16.072Z,73.20
2022-10-31T21:07:42.885Z,73.80
2022-10-31T21:10:14.842Z,73.40
2022-10-31T21:12:43.721Z,74.10
2022-10-31T21:15:13.284Z,73.20
2022-10-31T21:17:40.461Z,73.90
2022-10-31T21:20:10.012Z,73.80
2022-10-31T21:22:37.136Z,74.00
2022-10-31T21:25:04.404Z,73.80
2022-10-31T21:27:31.180Z,73.20
2022-10-31T21:29:58.282Z,74.10
2022-10-31T21:32:25.085Z,75.10
2022-10-31T21:34:51.781Z,74.20
2022-10-31T21:37:18.427Z,74.10
2022-10-31T21:39:50.471Z,74.40
2022-10-31T21:42:21.303Z,73.80
2022-10-31T21:44:49.112Z,73.40
2022-10-31T21:47:16.550Z,73.30
2022-10-31T21:49:43.587Z,73.10
2022-10-31T21:52:10.831Z,73.10
2022-10-31T21:54:40.461Z,73.50
2022-10-31T21:57:07.183Z,73.00
2022-10-31T21:59:33.805Z,73.00
2022-10-31T22:02:01.270Z,73.30
2022-10-31T22:04:28.541Z,73.90
2022-10-31T22:06:55.269Z,73.80
2022-10-31T22:09:23.562Z,73.70
2022-10-31T22:11:50.285Z,73.30
2022-10-31T22:14:16.938Z,73.20
2022-10-31T22:16:43.697Z,73.30
2022-10-31T22:19:12.727Z,73.00
2022-10-31T22:21:44.971Z,73.10
2022-10-31T22:24:12.357Z,73.70
2022-10-31T22:26:40.091Z,74.10
2022-10-31T22:29:12.245Z,74.40
2022-10-31T22:31:44.141Z,73.80
2022-10-31T22:34:12.415Z,74.60
2022-10-31T22:36:39.674Z,73.70
2022-10-31T22:39:07.143Z,73.70
2022-10-31T22:41:35.453Z,73.50
2022-10-31T22:44:03.026Z,73.40
2022-10-31T22:46:32.641Z,73.40
2022-10-31T22:49:02.956Z,73.60
2022-10-31T22:51:32.188Z,73.60
2022-10-31T22:53:59.134Z,73.20
2022-10-31T22:56:28.628Z,73.20
2022-10-31T22:58:55.851Z,73.40
2022-10-31T23:01:27.824Z,73.60
2022-10-31T23:03:54.454Z,73.50
2022-10-31T23:06:24.142Z,73.80
2022-10-31T23:08:52.002Z,74.10
2022-10-31T23:11:21.938Z,73.90
2022-10-31T23:14:09.206Z,73.70
2022-10-31T23:16:55.310Z,74.40
2022-10-31T23:19:23.236Z,74.50
2022-10-31T23:21:55.608Z,74.10
2022-10-31T23:24:33.227Z,74.10
2022-10-31T23:27:10.717Z,74.10
2022-10-31T23:29:44.463Z,74.10
2022-10-31T23:32:17.637Z,74.30
2022-10-31T23:34:45.187Z,74.50
2022-10-31T23:37:12.379Z,75.80
2022-10-31T23:39:39.184Z,75.10
2022-10-31T23:42:07.391Z,74.80
2022-10-31T23:44:34.036Z,74.50
2022-10-31T23:47:00.860Z,75.10
2022-10-31T23:49:28.660Z,76.10
2022-10-31T23:51:56.563Z,75.40
2022-10-31T23:54:23.837Z,75.10
2022-10-31T23:56:50.751Z,74.90
2022-10-31T23:59:17.401Z,75.30
